Time;durP1;ratioP1;P1;durP2;ratioP2;P2;SDS_P1;SDS_P2;PMS_P1;PMS_P2;Temp;Humidity;BMP_temperature;BMP_pressure;BME280_temperature;BME280_humidity;BME280_pressure;Samples;Min_cycle;Max_cycle;Signal;HPM_P1;HPM_P2
2021/12/18 00:01:08;;;;;;;0.60;0.30;;;;;;;;;;4195469;28;20048;-43
2021/12/18 00:03:09;;;;;;;0.60;0.30;;;;;;;;;;4196972;28;20044;-43
2021/12/18 00:05:10;;;;;;;0.75;0.28;;;;;;;;;;4196903;28;20106;-42
2021/12/18 00:07:11;;;;;;;0.20;0.20;;;;;;;;;;4196259;28;20045;-43
2021/12/18 00:09:12;;;;;;;0.40;0.30;;;;;;;;;;4196709;28;20542;-42
2021/12/18 00:11:14;;;;;;;0.70;0.40;;;;;;;;;;4196730;28;20052;-42
2021/12/18 00:13:16;;;;;;;0.70;0.30;;;;;;;;;;4195228;28;20053;-43
2021/12/18 00:15:18;;;;;;;0.55;0.35;;;;;;;;;;4196599;28;20052;-43
2021/12/18 00:17:19;;;;;;;0.32;0.20;;;;;;;;;;4196597;28;20055;-43
2021/12/18 00:19:25;;;;;;;0.40;0.30;;;;;;;;;;4196716;28;20087;-43
2021/12/18 00:21:26;;;;;;;0.40;0.30;;;;;;;;;;4196688;28;20053;-43
2021/12/18 00:23:28;;;;;;;0.55;0.40;;;;;;;;;;4196003;28;20052;-43
2021/12/18 00:25:29;;;;;;;0.30;0.20;;;;;;;;;;4196593;28;20052;-43
2021/12/18 00:27:30;;;;;;;0.38;0.20;;;;;;;;;;4196664;28;20045;-43
2021/12/18 00:29:31;;;;;;;0.57;0.20;;;;;;;;;;4196751;28;20087;-42
2021/12/18 00:31:32;;;;;;;0.57;0.40;;;;;;;;;;4196361;28;20378;-43
2021/12/18 00:33:33;;;;;;;0.43;0.30;;;;;;;;;;4196979;28;20056;-43
2021/12/18 00:35:34;;;;;;;0.20;0.17;;;;;;;;;;4196582;28;20060;-43
2021/12/18 00:37:35;;;;;;;0.32;0.28;;;;;;;;;;4197826;28;20075;-43
2021/12/18 00:39:42;;;;;;;0.35;0.25;;;;;;;;;;4199657;28;20059;-43
2021/12/18 00:44:04;;;;;;;0.15;0.15;;;;;;;;;;4199784;28;20044;-43
2021/12/18 00:46:05;;;;;;;0.47;0.30;;;;;;;;;;4199887;28;20074;-43
2021/12/18 00:48:06;;;;;;;0.75;0.30;;;;;;;;;;4199760;28;20044;-43
2021/12/18 00:50:09;;;;;;;0.50;0.22;;;;;;;;;;4199825;28;20554;-43
2021/12/18 00:52:11;;;;;;;0.45;0.38;;;;;;;;;;4199295;28;20064;-43
2021/12/18 00:54:13;;;;;;;0.38;0.20;;;;;;;;;;4199503;28;20060;-43
2021/12/18 00:56:14;;;;;;;1.20;0.30;;;;;;;;;;4199493;28;20059;-43
2021/12/18 00:58:15;;;;;;;0.40;0.30;;;;;;;;;;4199443;28;20088;-43
2021/12/18 01:00:21;;;;;;;0.45;0.30;;;;;;;;;;4199466;28;20045;-43
2021/12/18 01:02:22;;;;;;;0.85;0.30;;;;;;;;;;4199289;28;20482;-43
2021/12/18 01:04:23;;;;;;;0.40;0.30;;;;;;;;;;4199346;28;20404;-43
2021/12/18 01:06:25;;;;;;;0.22;0.20;;;;;;;;;;4199211;28;20044;-42
2021/12/18 01:08:26;;;;;;;0.40;0.30;;;;;;;;;;4198739;28;20322;-42
2021/12/18 01:10:52;;;;;;;0.22;0.20;;;;;;;;;;4199310;28;20044;-43
2021/12/18 01:12:56;;;;;;;0.50;0.40;;;;;;;;;;4199362;28;20057;-43
2021/12/18 01:15:12;;;;;;;0.20;0.20;;;;;;;;;;4199301;28;20102;-43
2021/12/18 01:23:54;;;;;;;0.30;0.25;;;;;;;;;;4182593;28;20331;-43
2021/12/18 01:25:56;;;;;;;0.60;0.30;;;;;;;;;;4182557;28;20102;-43
2021/12/18 01:27:57;;;;;;;0.38;0.30;;;;;;;;;;4182563;28;20041;-42
2021/12/18 01:29:58;;;;;;;0.60;0.30;;;;;;;;;;4182372;28;20048;-43
2021/12/18 01:31:59;;;;;;;0.45;0.30;;;;;;;;;;4182186;28;20057;-43
2021/12/18 01:33:59;;;;;;;0.28;0.28;;;;;;;;;;4182407;28;20064;-43
2021/12/18 01:36:01;;;;;;;0.22;0.20;;;;;;;;;;4182309;28;20114;-43
2021/12/18 01:38:03;;;;;;;0.85;0.20;;;;;;;;;;4181960;28;20111;-43
2021/12/18 01:40:04;;;;;;;0.20;0.20;;;;;;;;;;4181137;28;20045;-42
2021/12/18 01:42:36;;;;;;;0.38;0.22;;;;;;;;;;4182332;28;20053;-45
2021/12/18 01:45:17;;;;;;;0.30;0.20;;;;;;;;;;4182213;28;20056;-43
2021/12/18 01:52:03;;;;;;;0.20;0.20;;;;;;;;;;4180454;28;20520;-43
2021/12/18 01:54:04;;;;;;;0.22;0.17;;;;;;;;;;4182367;28;20128;-43
2021/12/18 01:56:06;;;;;;;0.95;0.20;;;;;;;;;;4181945;28;20091;-43
2021/12/18 01:58:08;;;;;;;0.20;0.20;;;;;;;;;;4181762;28;20044;-43
2021/12/18 02:00:14;;;;;;;0.70;0.20;;;;;;;;;;4181804;28;20445;-42
2021/12/18 02:02:15;;;;;;;0.52;0.30;;;;;;;;;;4181873;28;20057;-43
2021/12/18 02:04:17;;;;;;;0.77;0.40;;;;;;;;;;4181886;28;20507;-44
2021/12/18 02:06:17;;;;;;;0.40;0.30;;;;;;;;;;4180697;28;20198;-43
2021/12/18 02:08:20;;;;;;;0.43;0.20;;;;;;;;;;4181236;28;20503;-42
2021/12/18 02:10:25;;;;;;;0.52;0.20;;;;;;;;;;4181811;28;20566;-43
2021/12/18 02:12:37;;;;;;;0.32;0.30;;;;;;;;;;4181664;28;20102;-43
2021/12/18 02:19:50;;;;;;;0.47;0.20;;;;;;;;;;4181652;28;20401;-43
2021/12/18 02:21:51;;;;;;;0.17;0.10;;;;;;;;;;4181494;28;20151;-43
2021/12/18 02:23:52;;;;;;;0.52;0.30;;;;;;;;;;4196153;28;20113;-43
2021/12/18 02:25:53;;;;;;;0.82;0.28;;;;;;;;;;4197016;28;20052;-43
2021/12/18 02:27:55;;;;;;;0.88;0.28;;;;;;;;;;4196905;28;20052;-43
2021/12/18 02:29:58;;;;;;;0.20;0.15;;;;;;;;;;4197900;28;20094;-43
2021/12/18 02:31:59;;;;;;;0.17;0.10;;;;;;;;;;4196515;28;20456;-43
2021/12/18 02:34:02;;;;;;;0.88;0.30;;;;;;;;;;4198248;28;20279;-43
2021/12/18 02:36:06;;;;;;;0.50;0.30;;;;;;;;;;4198179;28;20830;-43
2021/12/18 02:38:13;;;;;;;0.68;0.30;;;;;;;;;;4196020;28;20083;-42
2021/12/18 02:42:34;;;;;;;0.28;0.20;;;;;;;;;;4197563;28;20114;-43
2021/12/18 02:44:36;;;;;;;0.20;0.20;;;;;;;;;;4197690;28;20044;-42
2021/12/18 02:46:37;;;;;;;0.17;0.10;;;;;;;;;;4197690;28;20102;-43
2021/12/18 02:48:40;;;;;;;0.25;0.20;;;;;;;;;;4196348;28;20113;-43
2021/12/18 02:50:41;;;;;;;0.20;0.10;;;;;;;;;;4197897;28;20048;-43
2021/12/18 02:52:41;;;;;;;0.28;0.13;;;;;;;;;;4197305;28;20545;-43
2021/12/18 02:54:43;;;;;;;0.20;0.20;;;;;;;;;;4197512;28;20407;-43
2021/12/18 02:56:44;;;;;;;0.30;0.10;;;;;;;;;;4197378;28;20052;-43
2021/12/18 02:58:46;;;;;;;0.20;0.20;;;;;;;;;;4197720;28;20052;-43
2021/12/18 03:00:48;;;;;;;0.55;0.20;;;;;;;;;;4197111;28;20484;-43
2021/12/18 03:02:49;;;;;;;0.25;0.20;;;;;;;;;;4197307;28;20057;-43
2021/12/18 03:04:55;;;;;;;0.10;0.10;;;;;;;;;;4197498;28;20053;-43
2021/12/18 03:07:00;;;;;;;0.15;0.15;;;;;;;;;;4196934;28;20102;-43
2021/12/18 03:23:01;;;;;;;0.10;0.10;;;;;;;;;;4196763;28;20360;-43
2021/12/18 03:25:11;;;;;;;0.52;0.20;;;;;;;;;;4195843;28;20068;-43
2021/12/18 03:27:11;;;;;;;0.30;0.13;;;;;;;;;;4197034;28;20044;-42
2021/12/18 03:29:12;;;;;;;0.30;0.20;;;;;;;;;;4197102;28;20093;-43
2021/12/18 03:31:13;;;;;;;0.40;0.20;;;;;;;;;;4197119;28;20514;-43
2021/12/18 03:33:14;;;;;;;0.45;0.20;;;;;;;;;;4196952;28;20110;-43
2021/12/18 03:35:15;;;;;;;0.40;0.20;;;;;;;;;;4196955;28;20056;-43
2021/12/18 03:37:17;;;;;;;0.38;0.22;;;;;;;;;;4196467;28;20056;-43
2021/12/18 03:39:18;;;;;;;0.45;0.22;;;;;;;;;;4196788;28;20071;-43
2021/12/18 03:41:19;;;;;;;0.40;0.30;;;;;;;;;;4197068;28;20437;-43
2021/12/18 03:43:20;;;;;;;0.20;0.20;;;;;;;;;;4196954;28;20186;-43
2021/12/18 03:45:21;;;;;;;0.22;0.10;;;;;;;;;;4196985;28;20154;-42
2021/12/18 03:47:22;;;;;;;0.20;0.10;;;;;;;;;;4196785;28;20044;-44
2021/12/18 03:49:23;;;;;;;0.30;0.30;;;;;;;;;;4196984;28;20198;-42
2021/12/18 03:51:24;;;;;;;0.30;0.20;;;;;;;;;;4196796;28;20083;-43
2021/12/18 03:53:25;;;;;;;0.43;0.20;;;;;;;;;;4196302;28;20049;-43
2021/12/18 03:55:26;;;;;;;0.20;0.10;;;;;;;;;;4196799;28;20099;-43
2021/12/18 03:57:27;;;;;;;0.43;0.10;;;;;;;;;;4197020;28;20074;-43
2021/12/18 03:59:28;;;;;;;0.20;0.20;;;;;;;;;;4196773;28;20082;-43
2021/12/18 04:01:29;;;;;;;0.28;0.20;;;;;;;;;;4196996;28;20095;-43
2021/12/18 04:03:30;;;;;;;0.55;0.30;;;;;;;;;;4196725;28;20101;-43
2021/12/18 04:05:31;;;;;;;0.47;0.20;;;;;;;;;;4196932;28;20056;-44
2021/12/18 04:07:40;;;;;;;0.63;0.30;;;;;;;;;;4196174;28;20044;-42
2021/12/18 04:09:41;;;;;;;0.10;0.10;;;;;;;;;;4197055;28;20060;-43
2021/12/18 04:11:42;;;;;;;0.30;0.13;;;;;;;;;;4196962;28;20481;-43
2021/12/18 04:13:46;;;;;;;0.30;0.20;;;;;;;;;;4200447;28;20056;-43
2021/12/18 04:15:47;;;;;;;0.28;0.20;;;;;;;;;;4200082;28;20077;-43
2021/12/18 04:17:48;;;;;;;0.30;0.10;;;;;;;;;;4198666;28;20044;-43
2021/12/18 04:19:49;;;;;;;0.20;0.20;;;;;;;;;;4199922;28;20109;-43
2021/12/18 04:21:50;;;;;;;0.22;0.20;;;;;;;;;;4197869;28;20094;-43
2021/12/18 04:23:51;;;;;;;0.40;0.35;;;;;;;;;;4199922;28;20118;-43
2021/12/18 04:25:52;;;;;;;0.20;0.20;;;;;;;;;;4199922;28;20052;-43
2021/12/18 04:27:53;;;;;;;0.50;0.30;;;;;;;;;;4199958;28;20099;-43
2021/12/18 04:29:54;;;;;;;0.20;0.20;;;;;;;;;;4199957;28;20480;-43
2021/12/18 04:31:56;;;;;;;0.65;0.20;;;;;;;;;;4199757;28;20134;-43
2021/12/18 04:33:57;;;;;;;0.10;0.10;;;;;;;;;;4199871;28;20059;-43
2021/12/18 04:35:58;;;;;;;0.57;0.20;;;;;;;;;;4199632;28;20099;-43
2021/12/18 04:37:59;;;;;;;0.20;0.10;;;;;;;;;;4199172;28;20602;-43
2021/12/18 04:39:59;;;;;;;0.28;0.28;;;;;;;;;;4199534;28;20095;-44
2021/12/18 04:42:00;;;;;;;0.10;0.10;;;;;;;;;;4198249;28;20098;-43
2021/12/18 04:44:01;;;;;;;0.40;0.20;;;;;;;;;;4199902;28;20132;-43
2021/12/18 04:46:03;;;;;;;0.20;0.10;;;;;;;;;;4199623;28;20044;-43
2021/12/18 04:48:04;;;;;;;0.20;0.10;;;;;;;;;;4199434;28;20477;-43
2021/12/18 04:50:05;;;;;;;0.13;0.13;;;;;;;;;;4199560;28;20378;-43
2021/12/18 04:52:06;;;;;;;0.38;0.20;;;;;;;;;;4198834;28;20382;-43
2021/12/18 04:54:07;;;;;;;0.30;0.10;;;;;;;;;;4199606;28;20189;-43
2021/12/18 04:56:08;;;;;;;0.20;0.10;;;;;;;;;;4199430;28;20056;-43
2021/12/18 04:58:09;;;;;;;1.08;0.10;;;;;;;;;;4199478;28;20048;-43
2021/12/18 05:00:13;;;;;;;0.10;0.10;;;;;;;;;;4199517;28;20503;-43
2021/12/18 05:02:18;;;;;;;0.20;0.15;;;;;;;;;;4199206;28;20052;-43
2021/12/18 05:04:19;;;;;;;0.20;0.10;;;;;;;;;;4181825;28;20048;-43
2021/12/18 05:06:21;;;;;;;0.40;0.20;;;;;;;;;;4199275;28;20078;-43
2021/12/18 05:08:21;;;;;;;0.10;0.10;;;;;;;;;;4198638;28;20084;-43
2021/12/18 05:10:22;;;;;;;0.20;0.10;;;;;;;;;;4197929;28;20048;-44
2021/12/18 05:12:23;;;;;;;0.10;0.10;;;;;;;;;;4199245;28;20052;-43
2021/12/18 05:14:24;;;;;;;0.30;0.20;;;;;;;;;;4199163;28;20101;-43
2021/12/18 05:16:25;;;;;;;0.10;0.10;;;;;;;;;;4199049;28;20106;-43
2021/12/18 05:18:27;;;;;;;0.10;0.10;;;;;;;;;;4199239;28;20102;-43
2021/12/18 05:20:28;;;;;;;0.17;0.10;;;;;;;;;;4198968;28;20052;-43
2021/12/18 05:22:29;;;;;;;0.30;0.30;;;;;;;;;;4198215;28;20102;-43
2021/12/18 05:24:30;;;;;;;0.20;0.10;;;;;;;;;;4199406;28;20052;-42
2021/12/18 05:26:32;;;;;;;0.38;0.20;;;;;;;;;;4198958;28;20115;-43
2021/12/18 05:28:32;;;;;;;0.50;0.30;;;;;;;;;;4197583;28;20052;-43
2021/12/18 05:30:33;;;;;;;0.25;0.10;;;;;;;;;;4198824;28;20091;-43
2021/12/18 05:32:34;;;;;;;0.20;0.20;;;;;;;;;;4198912;28;20060;-42
2021/12/18 05:34:40;;;;;;;0.10;0.10;;;;;;;;;;4198952;28;20438;-45
2021/12/18 05:37:12;;;;;;;0.10;0.10;;;;;;;;;;4198331;28;20480;-43
2021/12/18 05:39:03;;;;;;;0.28;0.10;;;;;;;;;;4198580;28;20056;-42
2021/12/18 05:41:04;;;;;;;1.38;0.10;;;;;;;;;;4199074;28;20064;-43
2021/12/18 05:43:07;;;;;;;0.15;0.10;;;;;;;;;;4198622;28;20048;-43
2021/12/18 05:45:08;;;;;;;0.30;0.20;;;;;;;;;;4198821;28;20142;-43
2021/12/18 05:47:09;;;;;;;0.30;0.20;;;;;;;;;;4198530;28;20449;-43
2021/12/18 05:49:11;;;;;;;0.20;0.15;;;;;;;;;;4198831;28;20075;-43
2021/12/18 05:51:12;;;;;;;0.38;0.13;;;;;;;;;;4198538;28;20082;-43
2021/12/18 05:53:14;;;;;;;0.55;0.20;;;;;;;;;;4197997;28;20095;-43
2021/12/18 05:55:15;;;;;;;0.20;0.20;;;;;;;;;;4198815;28;20048;-43
2021/12/18 05:57:16;;;;;;;0.30;0.10;;;;;;;;;;4198380;28;20493;-43
2021/12/18 05:59:17;;;;;;;0.30;0.10;;;;;;;;;;4198376;28;20064;-43
2021/12/18 06:01:19;;;;;;;0.10;0.10;;;;;;;;;;4198528;28;20052;-42
2021/12/18 06:03:20;;;;;;;0.10;0.10;;;;;;;;;;4198290;28;20495;-42
2021/12/18 06:05:21;;;;;;;0.30;0.20;;;;;;;;;;4198664;28;20119;-43
2021/12/18 06:07:30;;;;;;;0.65;0.20;;;;;;;;;;4198012;28;20057;-43
2021/12/18 06:09:33;;;;;;;0.10;0.10;;;;;;;;;;4198643;28;20052;-43
2021/12/18 06:11:37;;;;;;;0.20;0.20;;;;;;;;;;4198187;28;20052;-43
2021/12/18 06:13:38;;;;;;;0.13;0.13;;;;;;;;;;4198310;28;20063;-42
2021/12/18 06:15:39;;;;;;;0.25;0.20;;;;;;;;;;4198473;28;20044;-43
2021/12/18 06:17:40;;;;;;;0.10;0.08;;;;;;;;;;4198237;28;20056;-43
2021/12/18 06:19:41;;;;;;;0.20;0.10;;;;;;;;;;4198075;28;20102;-43
2021/12/18 06:21:42;;;;;;;0.40;0.20;;;;;;;;;;4197357;28;20095;-43
2021/12/18 06:23:44;;;;;;;0.20;0.13;;;;;;;;;;4198435;28;20056;-43
2021/12/18 06:25:45;;;;;;;0.10;0.10;;;;;;;;;;4198147;28;20444;-43
2021/12/18 06:27:46;;;;;;;0.10;0.10;;;;;;;;;;4197854;28;20041;-43
2021/12/18 06:29:48;;;;;;;0.22;0.20;;;;;;;;;;4197973;28;20480;-43
2021/12/18 06:31:49;;;;;;;0.10;0.10;;;;;;;;;;4197947;28;20056;-43
2021/12/18 06:33:50;;;;;;;0.10;0.10;;;;;;;;;;4196527;28;20457;-43
2021/12/18 06:35:51;;;;;;;0.10;0.10;;;;;;;;;;4197444;28;20082;-43
2021/12/18 06:37:52;;;;;;;0.20;0.10;;;;;;;;;;4197514;28;20089;-43
2021/12/18 06:39:53;;;;;;;0.25;0.10;;;;;;;;;;4197621;28;20377;-43
2021/12/18 06:41:54;;;;;;;0.10;0.10;;;;;;;;;;4197858;28;20061;-43
2021/12/18 06:43:55;;;;;;;0.22;0.20;;;;;;;;;;4197999;28;20162;-43
2021/12/18 06:45:56;;;;;;;0.10;0.00;;;;;;;;;;4197709;28;20526;-43
2021/12/18 06:47:57;;;;;;;0.50;0.20;;;;;;;;;;4196053;28;20044;-43
2021/12/18 06:49:58;;;;;;;0.28;0.10;;;;;;;;;;4197653;28;20114;-43
2021/12/18 06:51:59;;;;;;;0.52;0.20;;;;;;;;;;4197012;28;20516;-43
2021/12/18 06:54:00;;;;;;;0.25;0.25;;;;;;;;;;4197606;28;20099;-43
2021/12/18 06:56:03;;;;;;;0.38;0.20;;;;;;;;;;4197543;28;20094;-42
2021/12/18 06:58:04;;;;;;;0.10;0.10;;;;;;;;;;4197457;28;20060;-43
2021/12/18 07:00:07;;;;;;;0.10;0.10;;;;;;;;;;4197182;28;20052;-43
2021/12/18 07:02:08;;;;;;;0.28;0.10;;;;;;;;;;4197170;28;20059;-43
2021/12/18 07:04:08;;;;;;;0.65;0.20;;;;;;;;;;4197381;28;20084;-43
2021/12/18 07:06:09;;;;;;;0.10;0.10;;;;;;;;;;4197758;28;20103;-36
2021/12/18 07:08:11;;;;;;;0.20;0.20;;;;;;;;;;4197116;28;20056;-36
2021/12/18 07:10:13;;;;;;;0.10;0.10;;;;;;;;;;4197598;28;20110;-35
2021/12/18 07:12:14;;;;;;;0.20;0.10;;;;;;;;;;4197517;28;20060;-35
2021/12/18 07:14:15;;;;;;;0.47;0.10;;;;;;;;;;4197623;28;20110;-36
2021/12/18 07:16:16;;;;;;;0.10;0.10;;;;;;;;;;4196258;28;20044;-35
2021/12/18 07:18:17;;;;;;;0.28;0.20;;;;;;;;;;4197464;28;20098;-35
2021/12/18 07:20:18;;;;;;;0.15;0.10;;;;;;;;;;4197387;28;20484;-36
2021/12/18 07:22:19;;;;;;;0.10;0.10;;;;;;;;;;4196822;28;20114;-36
2021/12/18 07:24:20;;;;;;;0.10;0.10;;;;;;;;;;4197524;28;20080;-35
2021/12/18 07:26:21;;;;;;;0.15;0.15;;;;;;;;;;4196242;28;20091;-36
2021/12/18 07:28:22;;;;;;;0.38;0.10;;;;;;;;;;4197494;28;20049;-37
2021/12/18 07:30:23;;;;;;;0.10;0.10;;;;;;;;;;4197118;28;20056;-37
2021/12/18 07:32:26;;;;;;;0.13;0.10;;;;;;;;;;4197270;28;20393;-34
2021/12/18 07:34:27;;;;;;;0.08;0.08;;;;;;;;;;4197406;28;20056;-36
2021/12/18 07:36:28;;;;;;;0.73;0.13;;;;;;;;;;4197274;28;20163;-35
2021/12/18 07:38:29;;;;;;;0.20;0.10;;;;;;;;;;4196690;28;20378;-35
2021/12/18 07:40:30;;;;;;;0.30;0.22;;;;;;;;;;4197175;28;20091;-35
2021/12/18 07:42:31;;;;;;;0.25;0.20;;;;;;;;;;4197120;28;20102;-36
2021/12/18 07:44:32;;;;;;;0.20;0.10;;;;;;;;;;4197411;28;20398;-36
2021/12/18 07:46:34;;;;;;;0.10;0.10;;;;;;;;;;4196980;28;20079;-35
2021/12/18 07:48:35;;;;;;;0.15;0.10;;;;;;;;;;4195892;28;20036;-35
2021/12/18 07:50:36;;;;;;;0.47;0.17;;;;;;;;;;4197214;28;20377;-35
2021/12/18 07:52:37;;;;;;;0.20;0.20;;;;;;;;;;4196569;28;20103;-35
2021/12/18 07:54:38;;;;;;;0.05;0.05;;;;;;;;;;4197115;28;20094;-36
2021/12/18 07:56:39;;;;;;;0.28;0.10;;;;;;;;;;4197222;28;20053;-35
2021/12/18 07:58:40;;;;;;;0.30;0.20;;;;;;;;;;4197231;28;20049;-35
2021/12/18 08:00:41;;;;;;;0.25;0.10;;;;;;;;;;4196995;28;20451;-34
2021/12/18 08:02:42;;;;;;;0.93;0.10;;;;;;;;;;4196914;28;20076;-35
2021/12/18 08:04:43;;;;;;;0.10;0.10;;;;;;;;;;4195857;28;20090;-34
2021/12/18 08:06:44;;;;;;;0.30;0.10;;;;;;;;;;4196522;28;20106;-34
2021/12/18 08:08:46;;;;;;;0.10;0.10;;;;;;;;;;4197316;28;20074;-37
2021/12/18 08:10:47;;;;;;;0.28;0.10;;;;;;;;;;4197116;28;20045;-35
2021/12/18 08:12:48;;;;;;;0.30;0.20;;;;;;;;;;4196866;28;20075;-34
2021/12/18 08:14:49;;;;;;;0.10;0.10;;;;;;;;;;4196958;28;20130;-34
2021/12/18 08:16:50;;;;;;;0.20;0.10;;;;;;;;;;4196923;28;20443;-34
2021/12/18 08:18:51;;;;;;;0.13;0.13;;;;;;;;;;4197351;28;20129;-34
2021/12/18 08:20:52;;;;;;;0.13;0.10;;;;;;;;;;4197101;28;20083;-34
2021/12/18 08:22:53;;;;;;;0.10;0.00;;;;;;;;;;4196359;28;20543;-34
2021/12/18 08:24:54;;;;;;;0.10;0.10;;;;;;;;;;4197283;28;20183;-33
2021/12/18 08:26:55;;;;;;;0.13;0.10;;;;;;;;;;4196831;28;20052;-35
2021/12/18 08:28:56;;;;;;;0.20;0.10;;;;;;;;;;4196810;28;20044;-34
2021/12/18 08:30:57;;;;;;;0.30;0.10;;;;;;;;;;4197107;28;20063;-35
2021/12/18 08:32:58;;;;;;;0.10;0.10;;;;;;;;;;4196788;28;20106;-34
2021/12/18 08:34:59;;;;;;;0.30;0.10;;;;;;;;;;4196692;28;20103;-35
2021/12/18 08:37:00;;;;;;;0.45;0.10;;;;;;;;;;4196693;28;20101;-34
2021/12/18 08:39:01;;;;;;;0.15;0.10;;;;;;;;;;4196702;28;20134;-35
2021/12/18 08:41:02;;;;;;;0.10;0.10;;;;;;;;;;4196592;28;20095;-34
2021/12/18 08:43:03;;;;;;;0.20;0.13;;;;;;;;;;4196500;28;20086;-34
2021/12/18 08:45:04;;;;;;;0.15;0.10;;;;;;;;;;4196722;28;20389;-35
2021/12/18 08:47:05;;;;;;;0.10;0.10;;;;;;;;;;4196796;28;20048;-34
2021/12/18 08:49:06;;;;;;;0.10;0.10;;;;;;;;;;4195480;28;20045;-35
2021/12/18 08:51:07;;;;;;;0.13;0.10;;;;;;;;;;4196627;28;20064;-35
2021/12/18 08:53:09;;;;;;;0.10;0.10;;;;;;;;;;4196195;28;20052;-35
2021/12/18 08:55:10;;;;;;;0.17;0.17;;;;;;;;;;4196688;28;20349;-35
2021/12/18 08:57:11;;;;;;;0.10;0.10;;;;;;;;;;4196489;28;20056;-34
2021/12/18 08:59:12;;;;;;;0.08;0.08;;;;;;;;;;4199219;28;20052;-34
2021/12/18 09:01:13;;;;;;;0.17;0.00;;;;;;;;;;4199706;28;20048;-36
2021/12/18 09:03:14;;;;;;;0.30;0.20;;;;;;;;;;4199750;28;20074;-35
2021/12/18 09:05:17;;;;;;;0.10;0.10;;;;;;;;;;4198738;28;20058;-34
2021/12/18 09:07:18;;;;;;;0.98;0.10;;;;;;;;;;4198695;28;20048;-34
2021/12/18 09:09:19;;;;;;;0.20;0.10;;;;;;;;;;4199781;28;20062;-35
2021/12/18 09:11:20;;;;;;;0.17;0.17;;;;;;;;;;4198701;28;20131;-34
2021/12/18 09:13:21;;;;;;;0.20;0.20;;;;;;;;;;4198798;28;20052;-34
2021/12/18 09:15:22;;;;;;;0.10;0.10;;;;;;;;;;4199496;28;20570;-34
2021/12/18 09:17:23;;;;;;;0.15;0.10;;;;;;;;;;4199642;28;20053;-35
2021/12/18 09:19:24;;;;;;;0.10;0.10;;;;;;;;;;4198302;28;20116;-34
2021/12/18 09:21:25;;;;;;;0.10;0.10;;;;;;;;;;4199367;28;20054;-35
2021/12/18 09:23:26;;;;;;;0.22;0.20;;;;;;;;;;4198670;28;20549;-34
2021/12/18 09:25:28;;;;;;;0.10;0.10;;;;;;;;;;4199335;28;20048;-34
2021/12/18 09:27:29;;;;;;;0.08;0.08;;;;;;;;;;4199134;28;20101;-34
2021/12/18 09:29:31;;;;;;;0.10;0.08;;;;;;;;;;4199227;28;20489;-35
2021/12/18 09:31:32;;;;;;;0.10;0.10;;;;;;;;;;4199100;28;20060;-34
2021/12/18 09:33:33;;;;;;;0.35;0.20;;;;;;;;;;4199139;28;20078;-34
2021/12/18 09:35:34;;;;;;;0.00;0.00;;;;;;;;;;4199430;28;20057;-34
2021/12/18 09:37:35;;;;;;;0.25;0.20;;;;;;;;;;4198704;28;20092;-34
2021/12/18 09:39:36;;;;;;;0.30;0.10;;;;;;;;;;4198907;28;20087;-35
2021/12/18 09:41:37;;;;;;;0.00;0.00;;;;;;;;;;4197667;28;20485;-35
2021/12/18 09:43:38;;;;;;;0.10;0.10;;;;;;;;;;4199160;28;20098;-34
2021/12/18 09:45:39;;;;;;;0.20;0.10;;;;;;;;;;4199122;28;20098;-35
2021/12/18 09:47:40;;;;;;;0.10;0.10;;;;;;;;;;4198902;28;20048;-34
2021/12/18 09:49:42;;;;;;;0.28;0.20;;;;;;;;;;4198969;28;20053;-34
2021/12/18 09:51:43;;;;;;;1.00;0.10;;;;;;;;;;4198437;28;20390;-35
2021/12/18 09:53:44;;;;;;;0.10;0.10;;;;;;;;;;4197986;28;20060;-34
2021/12/18 09:55:45;;;;;;;0.20;0.20;;;;;;;;;;4198839;28;20105;-34
2021/12/18 09:57:46;;;;;;;0.20;0.10;;;;;;;;;;4198842;28;20071;-34
2021/12/18 09:59:47;;;;;;;0.17;0.13;;;;;;;;;;4198764;28;20067;-35
2021/12/18 10:01:48;;;;;;;0.10;0.10;;;;;;;;;;4198616;28;20053;-34
2021/12/18 10:03:49;;;;;;;0.10;0.10;;;;;;;;;;4198642;28;20476;-35
2021/12/18 10:05:50;;;;;;;0.10;0.03;;;;;;;;;;4198712;28;20128;-35
2021/12/18 10:08:25;;;;;;;0.20;0.20;;;;;;;;;;4198269;28;20179;-35
2021/12/18 10:10:26;;;;;;;0.10;0.10;;;;;;;;;;4175100;28;20056;-36
2021/12/18 10:12:29;;;;;;;0.10;0.10;;;;;;;;;;4198459;28;20048;-35
2021/12/18 10:14:37;;;;;;;0.15;0.10;;;;;;;;;;4198937;28;20102;-35
2021/12/18 10:16:43;;;;;;;0.13;0.10;;;;;;;;;;4197486;28;20073;-34
2021/12/18 10:18:44;;;;;;;0.50;0.10;;;;;;;;;;4198543;28;20056;-35
2021/12/18 10:20:45;;;;;;;0.10;0.10;;;;;;;;;;4198404;28;20270;-35
2021/12/18 10:22:53;;;;;;;0.10;0.10;;;;;;;;;;4197750;28;20060;-34
2021/12/18 10:25:02;;;;;;;0.13;0.13;;;;;;;;;;4197037;28;20474;-35
2021/12/18 10:27:42;;;;;;;0.10;0.10;;;;;;;;;;4198407;28;20392;-34
2021/12/18 10:29:43;;;;;;;0.10;0.10;;;;;;;;;;4177195;28;20063;-34
2021/12/18 10:31:45;;;;;;;0.10;0.05;;;;;;;;;;4198358;28;20103;-34
2021/12/18 10:33:47;;;;;;;0.00;0.00;;;;;;;;;;4197016;28;20098;-34
2021/12/18 10:35:50;;;;;;;0.00;0.00;;;;;;;;;;4197006;28;20044;-35
2021/12/18 10:37:51;;;;;;;0.10;0.00;;;;;;;;;;4197987;28;20110;-35
2021/12/18 10:39:53;;;;;;;0.10;0.10;;;;;;;;;;4198231;28;20128;-35
2021/12/18 10:41:54;;;;;;;0.10;0.10;;;;;;;;;;4198352;28;20102;-34
2021/12/18 10:43:56;;;;;;;0.85;0.10;;;;;;;;;;4198311;28;20095;-34
2021/12/18 10:45:57;;;;;;;0.10;0.10;;;;;;;;;;4198165;28;20048;-36
2021/12/18 10:48:06;;;;;;;0.10;0.10;;;;;;;;;;4198240;28;20052;-35
2021/12/18 10:50:14;;;;;;;0.10;0.10;;;;;;;;;;4198426;28;20044;-35
2021/12/18 10:52:15;;;;;;;0.10;0.10;;;;;;;;;;4197508;28;20083;-34
2021/12/18 10:54:19;;;;;;;0.45;0.20;;;;;;;;;;4198102;28;20177;-35
2021/12/18 10:56:30;;;;;;;0.13;0.13;;;;;;;;;;4196860;28;20052;-34
2021/12/18 10:58:35;;;;;;;0.20;0.10;;;;;;;;;;4197798;28;20385;-35
2021/12/18 11:00:39;;;;;;;0.52;0.20;;;;;;;;;;4198095;28;20053;-34
2021/12/18 11:02:40;;;;;;;0.17;0.17;;;;;;;;;;4197681;28;20060;-34
2021/12/18 11:04:43;;;;;;;0.40;0.10;;;;;;;;;;4198127;28;20048;-34
2021/12/18 11:06:44;;;;;;;0.20;0.10;;;;;;;;;;4197200;28;20052;-34
2021/12/18 11:08:53;;;;;;;0.10;0.10;;;;;;;;;;4197974;28;20055;-35
2021/12/18 11:13:38;;;;;;;0.00;0.00;;;;;;;;;;4198025;28;20052;-34
2021/12/18 11:13:38;;;;;;;0.35;0.17;;;;;;;;;;4197574;28;20121;-34
2021/12/18 11:15:39;;;;;;;0.10;0.10;;;;;;;;;;4197966;28;20057;-35
2021/12/18 11:17:40;;;;;;;0.10;0.10;;;;;;;;;;4197572;28;20074;-35
2021/12/18 11:19:42;;;;;;;0.00;0.00;;;;;;;;;;4197787;28;20089;-34
2021/12/18 11:21:45;;;;;;;0.10;0.10;;;;;;;;;;4196619;28;20109;-34
2021/12/18 11:24:01;;;;;;;0.10;0.03;;;;;;;;;;4197420;28;20480;-35
2021/12/18 11:26:02;;;;;;;0.10;0.10;;;;;;;;;;4197771;28;20056;-34
2021/12/18 11:28:03;;;;;;;0.10;0.10;;;;;;;;;;4197404;28;20105;-34
2021/12/18 11:30:06;;;;;;;0.10;0.10;;;;;;;;;;4197244;28;20056;-35
2021/12/18 11:32:09;;;;;;;0.00;0.00;;;;;;;;;;4197425;28;20061;-34
2021/12/18 11:34:10;;;;;;;0.00;0.00;;;;;;;;;;4197472;28;20049;-34
2021/12/18 11:36:11;;;;;;;1.67;0.10;;;;;;;;;;4197362;28;20446;-34
2021/12/18 11:38:13;;;;;;;0.30;0.20;;;;;;;;;;4196835;28;20428;-35
2021/12/18 11:40:16;;;;;;;0.10;0.10;;;;;;;;;;4197519;28;20056;-35
2021/12/18 11:42:18;;;;;;;0.10;0.10;;;;;;;;;;4197034;28;20056;-34
2021/12/18 11:44:23;;;;;;;0.00;0.00;;;;;;;;;;4197255;28;20075;-34
2021/12/18 11:46:37;;;;;;;0.00;0.00;;;;;;;;;;4197234;28;20105;-34
2021/12/18 11:48:51;;;;;;;0.13;0.10;;;;;;;;;;4197484;28;20053;-34
2021/12/18 11:50:52;;;;;;;0.15;0.10;;;;;;;;;;4197240;28;20056;-35
2021/12/18 11:53:03;;;;;;;0.20;0.10;;;;;;;;;;4196573;28;20186;-34
2021/12/18 11:55:08;;;;;;;0.10;0.10;;;;;;;;;;4197493;28;20056;-34
2021/12/18 11:57:09;;;;;;;0.00;0.00;;;;;;;;;;4197043;28;20052;-34
2021/12/18 11:59:10;;;;;;;0.30;0.10;;;;;;;;;;4197437;28;20059;-35
2021/12/18 12:01:14;;;;;;;0.10;0.10;;;;;;;;;;4197259;28;20455;-34
2021/12/18 12:03:37;;;;;;;0.17;0.10;;;;;;;;;;4197106;28;20045;-34
2021/12/18 12:05:43;;;;;;;0.10;0.10;;;;;;;;;;4197125;28;20515;-34
2021/12/18 12:07:45;;;;;;;0.05;0.05;;;;;;;;;;4196669;28;20100;-34
2021/12/18 12:10:05;;;;;;;0.10;0.10;;;;;;;;;;4197036;28;20057;-34
2021/12/18 12:12:10;;;;;;;0.00;0.00;;;;;;;;;;4197213;28;20049;-33
2021/12/18 12:14:14;;;;;;;0.10;0.10;;;;;;;;;;4195843;28;20139;-34
2021/12/18 12:16:15;;;;;;;0.10;0.03;;;;;;;;;;4197007;28;20377;-34
2021/12/18 12:18:16;;;;;;;0.10;0.10;;;;;;;;;;4196971;28;20056;-34
2021/12/18 12:20:31;;;;;;;0.10;0.00;;;;;;;;;;4197079;28;20099;-34
2021/12/18 12:22:34;;;;;;;0.65;0.20;;;;;;;;;;4196369;28;20431;-35
2021/12/18 12:24:54;;;;;;;0.20;0.20;;;;;;;;;;4196478;28;20103;-34
2021/12/18 12:26:55;;;;;;;;;;;;;;;;;;4197495;28;20044;-34
2021/12/18 12:28:56;;;;;;;0.13;0.10;;;;;;;;;;4196998;28;19975;-34
2021/12/18 12:31:00;;;;;;;0.20;0.10;;;;;;;;;;4195644;28;20057;-34
2021/12/18 12:33:02;;;;;;;0.00;0.00;;;;;;;;;;4197707;28;20049;-34
2021/12/18 12:35:08;;;;;;;0.20;0.10;;;;;;;;;;4199204;28;20045;-34
2021/12/18 12:37:24;;;;;;;0.10;0.10;;;;;;;;;;4199787;28;20054;-35
2021/12/18 12:39:26;;;;;;;0.00;0.00;;;;;;;;;;4200102;28;20057;-34
2021/12/18 12:41:29;;;;;;;0.13;0.10;;;;;;;;;;4200315;28;20052;-34
2021/12/18 12:43:37;;;;;;;0.10;0.10;;;;;;;;;;4200343;28;20098;-34
2021/12/18 12:45:40;;;;;;;0.28;0.10;;;;;;;;;;4200044;28;20442;-34
2021/12/18 12:47:52;;;;;;;0.10;0.10;;;;;;;;;;4200226;28;20052;-35
2021/12/18 12:49:54;;;;;;;0.20;0.10;;;;;;;;;;4199092;28;20044;-35
2021/12/18 12:52:04;;;;;;;0.25;0.10;;;;;;;;;;4199541;28;20079;-35